sensor_id;sensor_type;location;lat;lon;timestamp;temperature;humidity
28177;DHT22;15461;41.652;9.378;2023-06-22T00:00:55;22.60;99.90
28177;DHT22;15461;41.652;9.378;2023-06-22T00:03:22;22.60;99.90
28177;DHT22;15461;41.652;9.378;2023-06-22T00:05:49;22.60;99.90
28177;DHT22;15461;41.652;9.378;2023-06-22T00:08:16;22.60;99.90
28177;DHT22;15461;41.652;9.378;2023-06-22T00:10:42;22.60;99.90
28177;DHT22;15461;41.652;9.378;2023-06-22T00:13:09;22.60;99.90
28177;DHT22;15461;41.652;9.378;2023-06-22T00:15:36;22.60;99.90
28177;DHT22;15461;41.652;9.378;2023-06-22T00:18:02;22.70;99.90
28177;DHT22;15461;41.652;9.378;2023-06-22T00:20:29;22.60;99.90
28177;DHT22;15461;41.652;9.378;2023-06-22T00:22:59;22.60;99.90
28177;DHT22;15461;41.652;9.378;2023-06-22T00:25:26;22.60;99.90
28177;DHT22;15461;41.652;9.378;2023-06-22T00:27:52;22.60;99.90
28177;DHT22;15461;41.652;9.378;2023-06-22T00:30:18;22.60;99.90
28177;DHT22;15461;41.652;9.378;2023-06-22T00:32:45;22.60;99.90
28177;DHT22;15461;41.652;9.378;2023-06-22T00:35:14;22.60;99.90
28177;DHT22;15461;41.652;9.378;2023-06-22T00:37:40;22.60;99.90
28177;DHT22;15461;41.652;9.378;2023-06-22T00:40:08;22.70;99.90
28177;DHT22;15461;41.652;9.378;2023-06-22T00:42:37;22.70;99.90
28177;DHT22;15461;41.652;9.378;2023-06-22T00:45:04;22.60;99.90
28177;DHT22;15461;41.652;9.378;2023-06-22T00:47:29;22.60;99.90
28177;DHT22;15461;41.652;9.378;2023-06-22T00:49:55;22.60;99.90
28177;DHT22;15461;41.652;9.378;2023-06-22T00:52:22;22.60;99.90
28177;DHT22;15461;41.652;9.378;2023-06-22T00:54:52;22.60;99.90
28177;DHT22;15461;41.652;9.378;2023-06-22T00:57:20;22.50;99.90
28177;DHT22;15461;41.652;9.378;2023-06-22T00:59:48;22.50;99.90
28177;DHT22;15461;41.652;9.378;2023-06-22T01:02:14;22.50;99.90
28177;DHT22;15461;41.652;9.378;2023-06-22T01:04:40;22.40;99.90
28177;DHT22;15461;41.652;9.378;2023-06-22T01:07:31;22.40;99.90
28177;DHT22;15461;41.652;9.378;2023-06-22T01:12:56;22.40;99.90
28177;DHT22;15461;41.652;9.378;2023-06-22T01:15:58;22.40;99.90
28177;DHT22;15461;41.652;9.378;2023-06-22T01:18:19;22.40;99.90
28177;DHT22;15461;41.652;9.378;2023-06-22T01:20:53;22.40;99.90
28177;DHT22;15461;41.652;9.378;2023-06-22T01:28:51;22.30;99.90
28177;DHT22;15461;41.652;9.378;2023-06-22T01:31:20;22.30;99.90
28177;DHT22;15461;41.652;9.378;2023-06-22T01:33:54;22.30;99.90
28177;DHT22;15461;41.652;9.378;2023-06-22T01:36:21;22.30;99.90
28177;DHT22;15461;41.652;9.378;2023-06-22T01:38:48;22.30;99.90
28177;DHT22;15461;41.652;9.378;2023-06-22T01:41:16;22.30;99.90
28177;DHT22;15461;41.652;9.378;2023-06-22T01:43:43;22.30;99.90
28177;DHT22;15461;41.652;9.378;2023-06-22T01:46:10;22.30;99.90
28177;DHT22;15461;41.652;9.378;2023-06-22T01:48:39;22.30;99.90
28177;DHT22;15461;41.652;9.378;2023-06-22T01:51:05;22.30;99.90
28177;DHT22;15461;41.652;9.378;2023-06-22T01:53:31;22.40;99.90
28177;DHT22;15461;41.652;9.378;2023-06-22T01:55:57;22.40;99.90
28177;DHT22;15461;41.652;9.378;2023-06-22T01:58:26;22.40;99.90
28177;DHT22;15461;41.652;9.378;2023-06-22T02:00:58;22.40;99.90
28177;DHT22;15461;41.652;9.378;2023-06-22T02:03:37;22.40;99.90
28177;DHT22;15461;41.652;9.378;2023-06-22T02:06:08;22.40;99.90
28177;DHT22;15461;41.652;9.378;2023-06-22T02:08:47;22.40;99.90
28177;DHT22;15461;41.652;9.378;2023-06-22T02:11:17;22.40;99.90
28177;DHT22;15461;41.652;9.378;2023-06-22T02:13:45;22.30;99.90
28177;DHT22;15461;41.652;9.378;2023-06-22T02:16:12;22.30;99.90
28177;DHT22;15461;41.652;9.378;2023-06-22T02:18:49;22.30;99.90
28177;DHT22;15461;41.652;9.378;2023-06-22T02:21:17;22.40;99.90
28177;DHT22;15461;41.652;9.378;2023-06-22T02:23:43;22.30;99.90
28177;DHT22;15461;41.652;9.378;2023-06-22T02:26:08;22.30;99.90
28177;DHT22;15461;41.652;9.378;2023-06-22T02:28:34;22.30;99.90
28177;DHT22;15461;41.652;9.378;2023-06-22T02:31:00;22.30;99.90
28177;DHT22;15461;41.652;9.378;2023-06-22T02:33:26;22.30;99.90
28177;DHT22;15461;41.652;9.378;2023-06-22T02:35:53;22.30;99.90
28177;DHT22;15461;41.652;9.378;2023-06-22T02:38:21;22.30;99.90
28177;DHT22;15461;41.652;9.378;2023-06-22T02:40:51;22.30;99.90
28177;DHT22;15461;41.652;9.378;2023-06-22T02:43:17;22.30;99.90
28177;DHT22;15461;41.652;9.378;2023-06-22T02:45:44;22.30;99.90
28177;DHT22;15461;41.652;9.378;2023-06-22T02:48:11;22.30;99.90
28177;DHT22;15461;41.652;9.378;2023-06-22T02:50:37;22.30;99.90
28177;DHT22;15461;41.652;9.378;2023-06-22T02:53:04;22.30;99.90
28177;DHT22;15461;41.652;9.378;2023-06-22T02:55:35;22.30;99.90
28177;DHT22;15461;41.652;9.378;2023-06-22T02:58:01;22.30;99.90
28177;DHT22;15461;41.652;9.378;2023-06-22T03:00:32;22.30;99.90
28177;DHT22;15461;41.652;9.378;2023-06-22T03:02:58;22.30;99.90
28177;DHT22;15461;41.652;9.378;2023-06-22T03:05:24;22.30;99.90
28177;DHT22;15461;41.652;9.378;2023-06-22T03:07:50;22.30;99.90
28177;DHT22;15461;41.652;9.378;2023-06-22T03:10:16;22.30;99.90
28177;DHT22;15461;41.652;9.378;2023-06-22T03:12:43;22.30;99.90
28177;DHT22;15461;41.652;9.378;2023-06-22T03:15:11;22.30;99.90
28177;DHT22;15461;41.652;9.378;2023-06-22T03:17:39;22.30;99.90
28177;DHT22;15461;41.652;9.378;2023-06-22T03:20:07;22.30;99.90
28177;DHT22;15461;41.652;9.378;2023-06-22T03:22:41;22.30;99.90
28177;DHT22;15461;41.652;9.378;2023-06-22T03:25:08;22.40;99.90
28177;DHT22;15461;41.652;9.378;2023-06-22T03:27:43;22.40;99.90
28177;DHT22;15461;41.652;9.378;2023-06-22T03:30:11;22.40;99.90
28177;DHT22;15461;41.652;9.378;2023-06-22T03:32:37;22.50;99.90
28177;DHT22;15461;41.652;9.378;2023-06-22T03:35:05;22.50;99.90
28177;DHT22;15461;41.652;9.378;2023-06-22T03:37:33;22.50;99.90
28177;DHT22;15461;41.652;9.378;2023-06-22T03:39:59;22.60;99.90
28177;DHT22;15461;41.652;9.378;2023-06-22T03:42:26;22.60;99.90
28177;DHT22;15461;41.652;9.378;2023-06-22T03:44:52;22.70;99.90
28177;DHT22;15461;41.652;9.378;2023-06-22T03:47:18;22.70;99.90
28177;DHT22;15461;41.652;9.378;2023-06-22T03:49:44;22.70;99.90
28177;DHT22;15461;41.652;9.378;2023-06-22T03:52:10;22.80;99.90
28177;DHT22;15461;41.652;9.378;2023-06-22T03:54:36;22.80;99.90
28177;DHT22;15461;41.652;9.378;2023-06-22T03:57:02;22.90;99.90
28177;DHT22;15461;41.652;9.378;2023-06-22T03:59:28;22.90;99.90
28177;DHT22;15461;41.652;9.378;2023-06-22T04:01:54;22.90;99.90
28177;DHT22;15461;41.652;9.378;2023-06-22T04:04:20;22.90;99.90
28177;DHT22;15461;41.652;9.378;2023-06-22T04:06:46;22.90;99.90
28177;DHT22;15461;41.652;9.378;2023-06-22T04:09:12;22.90;99.90
28177;DHT22;15461;41.652;9.378;2023-06-22T04:11:37;22.90;99.90
28177;DHT22;15461;41.652;9.378;2023-06-22T04:14:03;22.90;99.90
28177;DHT22;15461;41.652;9.378;2023-06-22T04:16:29;22.90;99.90
28177;DHT22;15461;41.652;9.378;2023-06-22T04:18:55;23.00;99.90
28177;DHT22;15461;41.652;9.378;2023-06-22T04:21:21;23.00;99.90
28177;DHT22;15461;41.652;9.378;2023-06-22T04:23:46;23.00;99.90
28177;DHT22;15461;41.652;9.378;2023-06-22T04:26:13;23.00;99.90
28177;DHT22;15461;41.652;9.378;2023-06-22T04:28:40;23.00;99.90
28177;DHT22;15461;41.652;9.378;2023-06-22T04:31:06;23.00;99.90
28177;DHT22;15461;41.652;9.378;2023-06-22T04:33:32;23.00;99.90
28177;DHT22;15461;41.652;9.378;2023-06-22T04:35:58;23.10;99.90
28177;DHT22;15461;41.652;9.378;2023-06-22T04:38:26;23.10;99.90
28177;DHT22;15461;41.652;9.378;2023-06-22T04:40:52;23.10;99.90
28177;DHT22;15461;41.652;9.378;2023-06-22T04:43:19;23.10;99.90
28177;DHT22;15461;41.652;9.378;2023-06-22T04:45:45;23.10;99.90
28177;DHT22;15461;41.652;9.378;2023-06-22T04:48:11;23.20;99.90
28177;DHT22;15461;41.652;9.378;2023-06-22T04:50:41;23.20;99.90
28177;DHT22;15461;41.652;9.378;2023-06-22T04:53:08;23.20;99.90
28177;DHT22;15461;41.652;9.378;2023-06-22T04:55:39;23.20;99.90
28177;DHT22;15461;41.652;9.378;2023-06-22T04:58:07;23.30;99.90
28177;DHT22;15461;41.652;9.378;2023-06-22T05:00:33;23.30;99.90
28177;DHT22;15461;41.652;9.378;2023-06-22T05:03:01;23.30;99.90
28177;DHT22;15461;41.652;9.378;2023-06-22T05:05:29;23.30;99.90
28177;DHT22;15461;41.652;9.378;2023-06-22T05:07:56;23.30;99.90
28177;DHT22;15461;41.652;9.378;2023-06-22T05:10:25;23.30;99.90
28177;DHT22;15461;41.652;9.378;2023-06-22T05:12:51;23.30;99.90
28177;DHT22;15461;41.652;9.378;2023-06-22T05:15:17;23.30;99.90
28177;DHT22;15461;41.652;9.378;2023-06-22T05:17:45;23.30;99.90
28177;DHT22;15461;41.652;9.378;2023-06-22T05:20:12;23.30;99.90
28177;DHT22;15461;41.652;9.378;2023-06-22T05:22:41;23.40;99.90
28177;DHT22;15461;41.652;9.378;2023-06-22T05:25:10;23.40;99.90
28177;DHT22;15461;41.652;9.378;2023-06-22T05:27:36;23.40;99.90
28177;DHT22;15461;41.652;9.378;2023-06-22T05:30:08;23.40;99.90
28177;DHT22;15461;41.652;9.378;2023-06-22T05:32:35;23.40;99.90
28177;DHT22;15461;41.652;9.378;2023-06-22T05:35:02;23.30;99.90
28177;DHT22;15461;41.652;9.378;2023-06-22T05:37:28;23.40;99.90
28177;DHT22;15461;41.652;9.378;2023-06-22T05:39:54;23.40;99.90
28177;DHT22;15461;41.652;9.378;2023-06-22T05:42:21;23.40;99.90
28177;DHT22;15461;41.652;9.378;2023-06-22T05:44:47;23.40;99.90
28177;DHT22;15461;41.652;9.378;2023-06-22T05:47:13;23.40;99.90
28177;DHT22;15461;41.652;9.378;2023-06-22T05:49:39;23.40;99.90
28177;DHT22;15461;41.652;9.378;2023-06-22T05:52:05;23.40;99.90
28177;DHT22;15461;41.652;9.378;2023-06-22T05:54:31;23.40;99.90
28177;DHT22;15461;41.652;9.378;2023-06-22T05:56:56;23.50;99.90
28177;DHT22;15461;41.652;9.378;2023-06-22T05:59:22;23.60;99.90
28177;DHT22;15461;41.652;9.378;2023-06-22T06:01:48;23.60;99.90
28177;DHT22;15461;41.652;9.378;2023-06-22T06:04:17;23.70;99.90
28177;DHT22;15461;41.652;9.378;2023-06-22T06:06:43;23.70;99.90
28177;DHT22;15461;41.652;9.378;2023-06-22T06:09:09;23.70;99.90
28177;DHT22;15461;41.652;9.378;2023-06-22T06:11:37;23.80;99.90
28177;DHT22;15461;41.652;9.378;2023-06-22T06:14:03;23.80;99.90
28177;DHT22;15461;41.652;9.378;2023-06-22T06:16:29;23.90;99.90
28177;DHT22;15461;41.652;9.378;2023-06-22T06:18:55;23.90;99.90
28177;DHT22;15461;41.652;9.378;2023-06-22T06:21:22;24.00;99.90
28177;DHT22;15461;41.652;9.378;2023-06-22T06:23:47;24.00;99.90
28177;DHT22;15461;41.652;9.378;2023-06-22T06:26:13;24.00;99.90
28177;DHT22;15461;41.652;9.378;2023-06-22T06:28:42;24.10;99.90
28177;DHT22;15461;41.652;9.378;2023-06-22T06:31:09;24.10;99.90
28177;DHT22;15461;41.652;9.378;2023-06-22T06:33:35;24.20;99.90
28177;DHT22;15461;41.652;9.378;2023-06-22T06:36:02;24.20;99.90
28177;DHT22;15461;41.652;9.378;2023-06-22T06:38:30;24.20;99.90
28177;DHT22;15461;41.652;9.378;2023-06-22T06:40:56;24.20;99.90
28177;DHT22;15461;41.652;9.378;2023-06-22T06:43:22;24.30;99.90
28177;DHT22;15461;41.652;9.378;2023-06-22T06:45:49;24.40;99.90
28177;DHT22;15461;41.652;9.378;2023-06-22T06:48:15;24.60;99.90
28177;DHT22;15461;41.652;9.378;2023-06-22T06:50:40;24.90;99.90
28177;DHT22;15461;41.652;9.378;2023-06-22T06:53:06;25.10;99.90
28177;DHT22;15461;41.652;9.378;2023-06-22T06:55:32;25.40;99.90
28177;DHT22;15461;41.652;9.378;2023-06-22T06:58:02;25.60;99.90
28177;DHT22;15461;41.652;9.378;2023-06-22T07:00:28;25.90;99.90
28177;DHT22;15461;41.652;9.378;2023-06-22T07:02:54;25.90;99.90
28177;DHT22;15461;41.652;9.378;2023-06-22T07:05:20;26.00;99.90
28177;DHT22;15461;41.652;9.378;2023-06-22T07:07:45;26.00;99.90
28177;DHT22;15461;41.652;9.378;2023-06-22T07:10:11;26.10;99.90
28177;DHT22;15461;41.652;9.378;2023-06-22T07:12:37;26.10;99.90
28177;DHT22;15461;41.652;9.378;2023-06-22T07:15:05;26.10;99.90
28177;DHT22;15461;41.652;9.378;2023-06-22T07:17:31;26.00;99.90
28177;DHT22;15461;41.652;9.378;2023-06-22T07:19:57;25.90;99.90
28177;DHT22;15461;41.652;9.378;2023-06-22T07:22:23;25.80;99.90
28177;DHT22;15461;41.652;9.378;2023-06-22T07:24:48;25.80;99.90
28177;DHT22;15461;41.652;9.378;2023-06-22T07:27:15;25.90;99.90
28177;DHT22;15461;41.652;9.378;2023-06-22T07:29:44;26.10;99.90
28177;DHT22;15461;41.652;9.378;2023-06-22T07:32:10;26.10;99.90
28177;DHT22;15461;41.652;9.378;2023-06-22T07:34:36;26.20;99.90
28177;DHT22;15461;41.652;9.378;2023-06-22T07:37:02;26.30;99.90
28177;DHT22;15461;41.652;9.378;2023-06-22T07:39:28;26.50;99.90
28177;DHT22;15461;41.652;9.378;2023-06-22T07:41:54;26.50;99.90
28177;DHT22;15461;41.652;9.378;2023-06-22T07:44:20;26.70;99.90
28177;DHT22;15461;41.652;9.378;2023-06-22T07:46:46;26.90;99.90
28177;DHT22;15461;41.652;9.378;2023-06-22T07:49:11;27.00;99.90
28177;DHT22;15461;41.652;9.378;2023-06-22T07:51:37;27.00;99.90
28177;DHT22;15461;41.652;9.378;2023-06-22T07:54:03;27.00;99.90
28177;DHT22;15461;41.652;9.378;2023-06-22T07:56:29;27.10;99.90
28177;DHT22;15461;41.652;9.378;2023-06-22T07:58:55;27.20;99.90
28177;DHT22;15461;41.652;9.378;2023-06-22T08:01:23;27.20;99.90
28177;DHT22;15461;41.652;9.378;2023-06-22T08:03:49;27.20;99.90
28177;DHT22;15461;41.652;9.378;2023-06-22T08:06:15;27.30;99.90
28177;DHT22;15461;41.652;9.378;2023-06-22T08:08:42;27.20;99.90
28177;DHT22;15461;41.652;9.378;2023-06-22T08:11:09;27.30;99.90
28177;DHT22;15461;41.652;9.378;2023-06-22T08:13:34;27.50;99.90
28177;DHT22;15461;41.652;9.378;2023-06-22T08:16:00;27.60;99.90
28177;DHT22;15461;41.652;9.378;2023-06-22T08:18:26;27.80;99.90
28177;DHT22;15461;41.652;9.378;2023-06-22T08:20:52;27.80;99.90
28177;DHT22;15461;41.652;9.378;2023-06-22T08:23:18;27.90;99.90
28177;DHT22;15461;41.652;9.378;2023-06-22T08:25:45;28.10;99.90
28177;DHT22;15461;41.652;9.378;2023-06-22T08:28:11;28.10;99.90
28177;DHT22;15461;41.652;9.378;2023-06-22T08:30:36;28.30;99.90
28177;DHT22;15461;41.652;9.378;2023-06-22T08:33:02;28.40;99.90
28177;DHT22;15461;41.652;9.378;2023-06-22T08:35:28;28.50;99.90
28177;DHT22;15461;41.652;9.378;2023-06-22T08:37:54;28.50;99.90
28177;DHT22;15461;41.652;9.378;2023-06-22T08:40:22;28.60;99.90
28177;DHT22;15461;41.652;9.378;2023-06-22T08:42:49;28.70;99.90
28177;DHT22;15461;41.652;9.378;2023-06-22T08:45:15;28.80;99.90
28177;DHT22;15461;41.652;9.378;2023-06-22T08:47:42;28.80;99.90
28177;DHT22;15461;41.652;9.378;2023-06-22T08:50:09;28.70;99.90
28177;DHT22;15461;41.652;9.378;2023-06-22T08:52:35;28.60;99.90
28177;DHT22;15461;41.652;9.378;2023-06-22T08:55:02;28.60;99.90
28177;DHT22;15461;41.652;9.378;2023-06-22T08:57:28;28.60;99.90
28177;DHT22;15461;41.652;9.378;2023-06-22T08:59:54;28.60;99.90
28177;DHT22;15461;41.652;9.378;2023-06-22T09:02:25;28.70;99.90
28177;DHT22;15461;41.652;9.378;2023-06-22T09:04:50;28.70;99.90
28177;DHT22;15461;41.652;9.378;2023-06-22T09:07:24;28.70;99.90
28177;DHT22;15461;41.652;9.378;2023-06-22T09:09:51;28.70;99.90
28177;DHT22;15461;41.652;9.378;2023-06-22T09:12:18;28.70;99.90
28177;DHT22;15461;41.652;9.378;2023-06-22T09:14:48;28.60;99.90
28177;DHT22;15461;41.652;9.378;2023-06-22T09:17:14;28.60;99.90
28177;DHT22;15461;41.652;9.378;2023-06-22T09:19:40;28.70;99.90
28177;DHT22;15461;41.652;9.378;2023-06-22T09:22:06;28.80;99.90
28177;DHT22;15461;41.652;9.378;2023-06-22T09:24:32;28.60;99.90
28177;DHT22;15461;41.652;9.378;2023-06-22T09:26:58;28.50;99.90
28177;DHT22;15461;41.652;9.378;2023-06-22T09:29:24;28.70;99.90
28177;DHT22;15461;41.652;9.378;2023-06-22T09:31:50;28.80;99.90
28177;DHT22;15461;41.652;9.378;2023-06-22T09:34:19;29.00;99.90
28177;DHT22;15461;41.652;9.378;2023-06-22T09:36:46;29.10;99.90
28177;DHT22;15461;41.652;9.378;2023-06-22T09:39:12;29.20;99.90
28177;DHT22;15461;41.652;9.378;2023-06-22T09:41:38;29.30;99.90
28177;DHT22;15461;41.652;9.378;2023-06-22T09:44:04;29.30;99.90
28177;DHT22;15461;41.652;9.378;2023-06-22T09:46:30;29.20;99.90
28177;DHT22;15461;41.652;9.378;2023-06-22T09:48:56;29.10;99.90
28177;DHT22;15461;41.652;9.378;2023-06-22T09:51:22;29.10;99.90
28177;DHT22;15461;41.652;9.378;2023-06-22T09:53:49;29.10;99.90
28177;DHT22;15461;41.652;9.378;2023-06-22T09:56:15;28.90;99.90
28177;DHT22;15461;41.652;9.378;2023-06-22T09:58:45;28.80;99.90
28177;DHT22;15461;41.652;9.378;2023-06-22T10:01:18;28.90;99.90
28177;DHT22;15461;41.652;9.378;2023-06-22T10:03:44;28.90;99.90
28177;DHT22;15461;41.652;9.378;2023-06-22T10:06:10;29.00;99.90
28177;DHT22;15461;41.652;9.378;2023-06-22T10:08:36;29.00;99.90
28177;DHT22;15461;41.652;9.378;2023-06-22T10:11:03;29.10;99.90
28177;DHT22;15461;41.652;9.378;2023-06-22T10:13:29;29.30;99.90
28177;DHT22;15461;41.652;9.378;2023-06-22T10:15:55;29.40;99.90
28177;DHT22;15461;41.652;9.378;2023-06-22T10:18:21;29.50;99.90
28177;DHT22;15461;41.652;9.378;2023-06-22T10:20:49;29.50;99.90
28177;DHT22;15461;41.652;9.378;2023-06-22T10:23:18;29.50;99.90
28177;DHT22;15461;41.652;9.378;2023-06-22T10:25:45;29.50;99.90
28177;DHT22;15461;41.652;9.378;2023-06-22T10:28:10;29.20;99.90
28177;DHT22;15461;41.652;9.378;2023-06-22T10:30:38;29.20;99.90
28177;DHT22;15461;41.652;9.378;2023-06-22T10:33:07;29.30;99.90
28177;DHT22;15461;41.652;9.378;2023-06-22T10:35:33;29.40;99.90
28177;DHT22;15461;41.652;9.378;2023-06-22T10:37:59;29.40;99.90
28177;DHT22;15461;41.652;9.378;2023-06-22T10:40:25;29.40;99.90
28177;DHT22;15461;41.652;9.378;2023-06-22T10:42:51;29.40;99.90
28177;DHT22;15461;41.652;9.378;2023-06-22T10:45:17;29.50;99.90
28177;DHT22;15461;41.652;9.378;2023-06-22T10:47:42;29.60;99.90
28177;DHT22;15461;41.652;9.378;2023-06-22T10:50:08;29.60;99.90
28177;DHT22;15461;41.652;9.378;2023-06-22T10:52:34;29.60;99.90
28177;DHT22;15461;41.652;9.378;2023-06-22T10:55:00;29.90;99.90
28177;DHT22;15461;41.652;9.378;2023-06-22T10:57:26;30.00;99.90
28177;DHT22;15461;41.652;9.378;2023-06-22T10:59:52;29.90;99.90
28177;DHT22;15461;41.652;9.378;2023-06-22T11:02:17;29.80;99.90
28177;DHT22;15461;41.652;9.378;2023-06-22T11:04:43;29.60;99.90
28177;DHT22;15461;41.652;9.378;2023-06-22T11:07:09;29.30;99.90
28177;DHT22;15461;41.652;9.378;2023-06-22T11:09:35;29.20;99.90
28177;DHT22;15461;41.652;9.378;2023-06-22T11:12:01;29.30;99.90
28177;DHT22;15461;41.652;9.378;2023-06-22T11:14:27;29.60;99.90
28177;DHT22;15461;41.652;9.378;2023-06-22T11:16:52;29.70;99.90
28177;DHT22;15461;41.652;9.378;2023-06-22T11:19:18;30.00;99.90
28177;DHT22;15461;41.652;9.378;2023-06-22T11:21:44;30.10;99.90
28177;DHT22;15461;41.652;9.378;2023-06-22T11:24:10;29.90;99.90
28177;DHT22;15461;41.652;9.378;2023-06-22T11:26:36;29.70;99.90
28177;DHT22;15461;41.652;9.378;2023-06-22T11:29:02;29.40;99.90
28177;DHT22;15461;41.652;9.378;2023-06-22T11:31:32;29.20;99.90
28177;DHT22;15461;41.652;9.378;2023-06-22T11:33:58;29.00;99.90
28177;DHT22;15461;41.652;9.378;2023-06-22T11:36:25;28.80;99.90
28177;DHT22;15461;41.652;9.378;2023-06-22T11:38:51;28.90;99.90
28177;DHT22;15461;41.652;9.378;2023-06-22T11:41:17;29.00;99.90
28177;DHT22;15461;41.652;9.378;2023-06-22T11:43:43;29.00;99.90
28177;DHT22;15461;41.652;9.378;2023-06-22T11:46:09;29.00;99.90
28177;DHT22;15461;41.652;9.378;2023-06-22T11:48:50;29.10;99.90
28177;DHT22;15461;41.652;9.378;2023-06-22T11:51:16;29.20;99.90
28177;DHT22;15461;41.652;9.378;2023-06-22T11:53:41;29.20;99.90
28177;DHT22;15461;41.652;9.378;2023-06-22T11:56:07;29.00;99.90
28177;DHT22;15461;41.652;9.378;2023-06-22T11:58:33;29.10;99.90
28177;DHT22;15461;41.652;9.378;2023-06-22T12:00:59;29.10;99.90
28177;DHT22;15461;41.652;9.378;2023-06-22T12:03:24;29.00;99.90
28177;DHT22;15461;41.652;9.378;2023-06-22T12:05:51;29.00;99.90
28177;DHT22;15461;41.652;9.378;2023-06-22T12:08:17;29.10;99.90
28177;DHT22;15461;41.652;9.378;2023-06-22T12:10:44;29.10;99.90
28177;DHT22;15461;41.652;9.378;2023-06-22T12:13:10;28.90;99.90
28177;DHT22;15461;41.652;9.378;2023-06-22T12:15:36;28.70;99.90
28177;DHT22;15461;41.652;9.378;2023-06-22T12:18:01;28.70;99.90
28177;DHT22;15461;41.652;9.378;2023-06-22T12:20:28;28.60;99.90
28177;DHT22;15461;41.652;9.378;2023-06-22T12:22:54;28.50;99.90
28177;DHT22;15461;41.652;9.378;2023-06-22T12:25:22;28.40;99.90
28177;DHT22;15461;41.652;9.378;2023-06-22T12:27:48;28.50;99.90
28177;DHT22;15461;41.652;9.378;2023-06-22T12:30:13;28.50;99.90
28177;DHT22;15461;41.652;9.378;2023-06-22T12:32:39;28.50;99.90
28177;DHT22;15461;41.652;9.378;2023-06-22T12:35:05;28.50;99.90
28177;DHT22;15461;41.652;9.378;2023-06-22T12:37:34;28.50;99.90
28177;DHT22;15461;41.652;9.378;2023-06-22T12:39:59;28.60;99.90
28177;DHT22;15461;41.652;9.378;2023-06-22T12:42:25;28.70;99.90
28177;DHT22;15461;41.652;9.378;2023-06-22T12:44:53;28.80;99.90
28177;DHT22;15461;41.652;9.378;2023-06-22T12:47:19;28.60;99.90
28177;DHT22;15461;41.652;9.378;2023-06-22T12:49:45;28.80;99.90
28177;DHT22;15461;41.652;9.378;2023-06-22T12:52:11;29.00;99.90
28177;DHT22;15461;41.652;9.378;2023-06-22T12:54:37;29.00;99.90
28177;DHT22;15461;41.652;9.378;2023-06-22T12:57:03;28.90;99.90
28177;DHT22;15461;41.652;9.378;2023-06-22T12:59:29;28.70;99.90
28177;DHT22;15461;41.652;9.378;2023-06-22T13:01:55;28.60;99.90
28177;DHT22;15461;41.652;9.378;2023-06-22T13:04:20;28.50;99.90
28177;DHT22;15461;41.652;9.378;2023-06-22T13:06:46;28.50;99.90
28177;DHT22;15461;41.652;9.378;2023-06-22T13:09:17;28.60;99.90
28177;DHT22;15461;41.652;9.378;2023-06-22T13:11:43;28.80;99.90
28177;DHT22;15461;41.652;9.378;2023-06-22T13:14:09;29.10;99.90
28177;DHT22;15461;41.652;9.378;2023-06-22T13:16:34;29.30;99.90
28177;DHT22;15461;41.652;9.378;2023-06-22T13:19:00;29.60;99.90
28177;DHT22;15461;41.652;9.378;2023-06-22T13:21:26;29.80;99.90
28177;DHT22;15461;41.652;9.378;2023-06-22T13:23:52;29.90;99.90
28177;DHT22;15461;41.652;9.378;2023-06-22T13:26:18;30.00;99.90
28177;DHT22;15461;41.652;9.378;2023-06-22T13:28:44;30.00;99.90
28177;DHT22;15461;41.652;9.378;2023-06-22T13:31:09;30.10;99.90
28177;DHT22;15461;41.652;9.378;2023-06-22T13:33:37;30.30;99.90
28177;DHT22;15461;41.652;9.378;2023-06-22T13:36:03;30.30;99.90
28177;DHT22;15461;41.652;9.378;2023-06-22T13:38:29;30.30;99.90
28177;DHT22;15461;41.652;9.378;2023-06-22T13:40:56;30.30;99.90
28177;DHT22;15461;41.652;9.378;2023-06-22T13:43:24;30.20;99.90
28177;DHT22;15461;41.652;9.378;2023-06-22T13:45:50;30.10;99.90
28177;DHT22;15461;41.652;9.378;2023-06-22T13:48:15;30.10;99.90
28177;DHT22;15461;41.652;9.378;2023-06-22T13:50:41;30.00;99.90
28177;DHT22;15461;41.652;9.378;2023-06-22T13:53:07;30.00;99.90
28177;DHT22;15461;41.652;9.378;2023-06-22T13:55:33;30.00;99.90
28177;DHT22;15461;41.652;9.378;2023-06-22T13:57:58;30.10;99.90
28177;DHT22;15461;41.652;9.378;2023-06-22T14:00:24;30.20;99.90
28177;DHT22;15461;41.652;9.378;2023-06-22T14:02:50;30.10;99.90
28177;DHT22;15461;41.652;9.378;2023-06-22T14:05:16;30.10;99.90
28177;DHT22;15461;41.652;9.378;2023-06-22T14:07:42;30.20;99.90
28177;DHT22;15461;41.652;9.378;2023-06-22T14:10:08;30.20;99.90
28177;DHT22;15461;41.652;9.378;2023-06-22T14:12:34;30.20;99.90
28177;DHT22;15461;41.652;9.378;2023-06-22T14:15:00;30.30;99.90
28177;DHT22;15461;41.652;9.378;2023-06-22T14:17:26;30.40;99.90
28177;DHT22;15461;41.652;9.378;2023-06-22T14:19:52;30.30;99.90
28177;DHT22;15461;41.652;9.378;2023-06-22T14:22:19;30.20;99.90
28177;DHT22;15461;41.652;9.378;2023-06-22T14:24:46;30.20;99.90
28177;DHT22;15461;41.652;9.378;2023-06-22T14:27:11;30.20;99.90
28177;DHT22;15461;41.652;9.378;2023-06-22T14:29:37;30.10;99.90
28177;DHT22;15461;41.652;9.378;2023-06-22T14:32:03;30.10;99.90
28177;DHT22;15461;41.652;9.378;2023-06-22T14:34:32;29.90;99.90
28177;DHT22;15461;41.652;9.378;2023-06-22T14:36:58;29.90;99.90
28177;DHT22;15461;41.652;9.378;2023-06-22T14:39:24;29.90;99.90
28177;DHT22;15461;41.652;9.378;2023-06-22T14:41:49;29.70;99.90
28177;DHT22;15461;41.652;9.378;2023-06-22T14:44:15;29.70;99.90
28177;DHT22;15461;41.652;9.378;2023-06-22T14:46:41;29.70;99.90
28177;DHT22;15461;41.652;9.378;2023-06-22T14:49:07;29.80;99.90
28177;DHT22;15461;41.652;9.378;2023-06-22T14:51:33;29.70;99.90
28177;DHT22;15461;41.652;9.378;2023-06-22T14:53:58;29.70;99.90
28177;DHT22;15461;41.652;9.378;2023-06-22T14:56:24;29.60;99.90
28177;DHT22;15461;41.652;9.378;2023-06-22T14:58:50;29.40;99.90
28177;DHT22;15461;41.652;9.378;2023-06-22T15:01:18;29.20;99.90
28177;DHT22;15461;41.652;9.378;2023-06-22T15:03:44;29.20;99.90
28177;DHT22;15461;41.652;9.378;2023-06-22T15:06:10;29.00;99.90
28177;DHT22;15461;41.652;9.378;2023-06-22T15:08:40;28.90;99.90
28177;DHT22;15461;41.652;9.378;2023-06-22T15:11:07;28.80;99.90
28177;DHT22;15461;41.652;9.378;2023-06-22T15:13:33;28.80;99.90
28177;DHT22;15461;41.652;9.378;2023-06-22T15:16:00;28.90;99.90
28177;DHT22;15461;41.652;9.378;2023-06-22T15:18:26;28.90;99.90
28177;DHT22;15461;41.652;9.378;2023-06-22T15:20:53;29.00;99.90
28177;DHT22;15461;41.652;9.378;2023-06-22T15:23:18;29.10;99.90
28177;DHT22;15461;41.652;9.378;2023-06-22T15:25:44;29.20;99.90
28177;DHT22;15461;41.652;9.378;2023-06-22T15:28:12;29.30;99.90
28177;DHT22;15461;41.652;9.378;2023-06-22T15:30:37;29.30;99.90
28177;DHT22;15461;41.652;9.378;2023-06-22T15:33:03;29.00;99.90
28177;DHT22;15461;41.652;9.378;2023-06-22T15:35:29;28.90;99.90